sensor_id;sensor_type;location;lat;lon;timestamp;P1;durP1;ratioP1;P2;durP2;ratioP2
801;SDS011;383;48.766;9.270;2022-09-09T00:02:14;5.30;;;2.83;;
801;SDS011;383;48.766;9.270;2022-09-09T00:04:46;9.23;;;2.20;;
801;SDS011;383;48.766;9.270;2022-09-09T00:07:25;5.77;;;2.43;;
801;SDS011;383;48.766;9.270;2022-09-09T00:10:08;7.03;;;2.33;;
801;SDS011;383;48.766;9.270;2022-09-09T00:12:47;6.73;;;2.47;;
801;SDS011;383;48.766;9.270;2022-09-09T00:15:22;9.67;;;3.47;;
801;SDS011;383;48.766;9.270;2022-09-09T00:17:52;9.73;;;2.13;;
801;SDS011;383;48.766;9.270;2022-09-09T00:20:24;11.77;;;2.50;;
801;SDS011;383;48.766;9.270;2022-09-09T00:22:59;5.00;;;2.60;;
801;SDS011;383;48.766;9.270;2022-09-09T00:25:33;4.37;;;2.47;;
801;SDS011;383;48.766;9.270;2022-09-09T00:28:08;6.27;;;3.10;;
801;SDS011;383;48.766;9.270;2022-09-09T00:30:42;6.77;;;2.80;;
801;SDS011;383;48.766;9.270;2022-09-09T00:33:13;4.73;;;2.37;;
801;SDS011;383;48.766;9.270;2022-09-09T00:35:44;7.97;;;2.97;;
801;SDS011;383;48.766;9.270;2022-09-09T00:38:13;4.90;;;2.27;;
801;SDS011;383;48.766;9.270;2022-09-09T00:40:48;6.00;;;2.77;;
801;SDS011;383;48.766;9.270;2022-09-09T00:43:25;5.53;;;2.83;;
801;SDS011;383;48.766;9.270;2022-09-09T00:46:14;3.80;;;2.40;;
801;SDS011;383;48.766;9.270;2022-09-09T00:48:56;3.13;;;2.13;;
801;SDS011;383;48.766;9.270;2022-09-09T00:51:30;5.63;;;2.47;;
801;SDS011;383;48.766;9.270;2022-09-09T00:54:14;2.40;;;2.17;;
801;SDS011;383;48.766;9.270;2022-09-09T00:57:13;6.00;;;2.27;;
801;SDS011;383;48.766;9.270;2022-09-09T00:59:50;7.43;;;2.20;;
801;SDS011;383;48.766;9.270;2022-09-09T01:02:21;8.37;;;2.83;;
801;SDS011;383;48.766;9.270;2022-09-09T01:04:54;6.33;;;2.83;;
801;SDS011;383;48.766;9.270;2022-09-09T01:07:24;4.50;;;3.00;;
801;SDS011;383;48.766;9.270;2022-09-09T01:09:52;7.63;;;2.87;;
801;SDS011;383;48.766;9.270;2022-09-09T01:12:28;6.10;;;2.50;;
801;SDS011;383;48.766;9.270;2022-09-09T01:15:08;11.07;;;2.50;;
801;SDS011;383;48.766;9.270;2022-09-09T01:17:40;9.77;;;2.50;;
801;SDS011;383;48.766;9.270;2022-09-09T01:20:15;7.67;;;1.93;;
801;SDS011;383;48.766;9.270;2022-09-09T01:22:49;4.07;;;1.90;;
801;SDS011;383;48.766;9.270;2022-09-09T01:25:28;2.80;;;2.10;;
801;SDS011;383;48.766;9.270;2022-09-09T01:27:59;2.40;;;1.93;;
801;SDS011;383;48.766;9.270;2022-09-09T01:30:29;9.73;;;2.23;;
801;SDS011;383;48.766;9.270;2022-09-09T01:32:59;2.30;;;1.73;;
801;SDS011;383;48.766;9.270;2022-09-09T01:35:31;5.73;;;1.90;;
801;SDS011;383;48.766;9.270;2022-09-09T01:38:03;5.37;;;2.07;;
801;SDS011;383;48.766;9.270;2022-09-09T01:40:30;3.27;;;2.23;;
801;SDS011;383;48.766;9.270;2022-09-09T01:42:59;2.70;;;1.80;;
801;SDS011;383;48.766;9.270;2022-09-09T01:45:26;4.10;;;2.17;;
801;SDS011;383;48.766;9.270;2022-09-09T01:47:53;4.03;;;2.00;;
801;SDS011;383;48.766;9.270;2022-09-09T01:50:20;8.07;;;2.03;;
801;SDS011;383;48.766;9.270;2022-09-09T01:52:49;2.87;;;1.80;;
801;SDS011;383;48.766;9.270;2022-09-09T01:55:19;2.70;;;1.67;;
801;SDS011;383;48.766;9.270;2022-09-09T01:58:01;5.43;;;1.93;;
801;SDS011;383;48.766;9.270;2022-09-09T02:00:41;2.80;;;1.97;;
801;SDS011;383;48.766;9.270;2022-09-09T02:03:18;5.20;;;1.80;;
801;SDS011;383;48.766;9.270;2022-09-09T02:05:51;6.97;;;2.30;;
801;SDS011;383;48.766;9.270;2022-09-09T02:08:26;8.87;;;1.90;;
801;SDS011;383;48.766;9.270;2022-09-09T02:10:59;2.90;;;1.90;;
801;SDS011;383;48.766;9.270;2022-09-09T02:16:02;5.37;;;1.90;;
801;SDS011;383;48.766;9.270;2022-09-09T02:18:34;3.53;;;1.87;;
801;SDS011;383;48.766;9.270;2022-09-09T02:21:04;3.13;;;1.97;;
801;SDS011;383;48.766;9.270;2022-09-09T02:23:32;2.90;;;1.97;;
801;SDS011;383;48.766;9.270;2022-09-09T02:26:00;7.50;;;2.23;;
801;SDS011;383;48.766;9.270;2022-09-09T02:28:29;2.80;;;1.80;;
801;SDS011;383;48.766;9.270;2022-09-09T02:31:01;3.83;;;1.70;;
801;SDS011;383;48.766;9.270;2022-09-09T02:33:29;2.77;;;2.13;;
801;SDS011;383;48.766;9.270;2022-09-09T02:36:00;6.53;;;1.80;;
801;SDS011;383;48.766;9.270;2022-09-09T02:38:32;3.00;;;1.60;;
801;SDS011;383;48.766;9.270;2022-09-09T02:41:03;2.40;;;1.87;;
801;SDS011;383;48.766;9.270;2022-09-09T02:43:31;5.03;;;1.47;;
801;SDS011;383;48.766;9.270;2022-09-09T02:46:01;6.50;;;1.73;;
801;SDS011;383;48.766;9.270;2022-09-09T02:48:35;2.00;;;1.83;;
801;SDS011;383;48.766;9.270;2022-09-09T02:51:10;3.43;;;2.10;;
801;SDS011;383;48.766;9.270;2022-09-09T02:53:47;4.30;;;3.57;;
801;SDS011;383;48.766;9.270;2022-09-09T02:56:21;5.30;;;2.03;;
801;SDS011;383;48.766;9.270;2022-09-09T02:58:54;2.10;;;1.60;;
801;SDS011;383;48.766;9.270;2022-09-09T03:01:22;6.43;;;1.60;;
801;SDS011;383;48.766;9.270;2022-09-09T03:03:49;4.43;;;2.23;;
801;SDS011;383;48.766;9.270;2022-09-09T03:06:16;5.80;;;1.70;;
801;SDS011;383;48.766;9.270;2022-09-09T03:08:42;4.00;;;2.73;;
801;SDS011;383;48.766;9.270;2022-09-09T03:11:09;3.83;;;1.70;;
801;SDS011;383;48.766;9.270;2022-09-09T03:13:36;6.53;;;1.90;;
801;SDS011;383;48.766;9.270;2022-09-09T03:16:03;7.10;;;2.30;;
801;SDS011;383;48.766;9.270;2022-09-09T03:18:32;2.30;;;1.70;;
801;SDS011;383;48.766;9.270;2022-09-09T03:20:59;2.33;;;1.83;;
801;SDS011;383;48.766;9.270;2022-09-09T03:23:26;4.40;;;1.90;;
801;SDS011;383;48.766;9.270;2022-09-09T03:25:53;4.50;;;2.57;;
801;SDS011;383;48.766;9.270;2022-09-09T03:28:22;2.77;;;2.00;;
801;SDS011;383;48.766;9.270;2022-09-09T03:30:57;2.70;;;2.07;;
801;SDS011;383;48.766;9.270;2022-09-09T03:33:24;3.33;;;2.63;;
801;SDS011;383;48.766;9.270;2022-09-09T03:35:52;2.70;;;2.10;;
801;SDS011;383;48.766;9.270;2022-09-09T03:38:21;8.63;;;2.07;;
801;SDS011;383;48.766;9.270;2022-09-09T03:40:49;7.40;;;2.03;;
801;SDS011;383;48.766;9.270;2022-09-09T03:43:16;8.20;;;2.33;;
801;SDS011;383;48.766;9.270;2022-09-09T03:45:44;3.10;;;1.87;;
801;SDS011;383;48.766;9.270;2022-09-09T03:48:12;4.93;;;2.40;;
801;SDS011;383;48.766;9.270;2022-09-09T03:50:39;4.47;;;2.40;;
801;SDS011;383;48.766;9.270;2022-09-09T03:53:11;7.93;;;3.60;;
801;SDS011;383;48.766;9.270;2022-09-09T03:55:38;8.40;;;3.00;;
801;SDS011;383;48.766;9.270;2022-09-09T03:58:06;5.53;;;2.50;;
801;SDS011;383;48.766;9.270;2022-09-09T04:00:33;3.53;;;2.10;;
801;SDS011;383;48.766;9.270;2022-09-09T04:03:00;4.03;;;1.97;;
801;SDS011;383;48.766;9.270;2022-09-09T04:05:27;5.13;;;2.50;;
801;SDS011;383;48.766;9.270;2022-09-09T04:07:54;9.10;;;2.17;;
801;SDS011;383;48.766;9.270;2022-09-09T04:10:22;7.13;;;2.50;;
801;SDS011;383;48.766;9.270;2022-09-09T04:12:49;7.10;;;2.50;;
801;SDS011;383;48.766;9.270;2022-09-09T04:15:16;8.37;;;2.63;;
801;SDS011;383;48.766;9.270;2022-09-09T04:17:43;7.03;;;2.30;;
801;SDS011;383;48.766;9.270;2022-09-09T04:20:10;5.20;;;2.30;;
801;SDS011;383;48.766;9.270;2022-09-09T04:22:37;7.33;;;2.33;;
801;SDS011;383;48.766;9.270;2022-09-09T04:25:05;4.40;;;2.10;;
801;SDS011;383;48.766;9.270;2022-09-09T04:27:33;5.93;;;2.60;;
801;SDS011;383;48.766;9.270;2022-09-09T04:30:00;2.57;;;2.33;;
801;SDS011;383;48.766;9.270;2022-09-09T04:32:26;6.10;;;2.90;;
801;SDS011;383;48.766;9.270;2022-09-09T04:34:53;15.63;;;2.80;;
801;SDS011;383;48.766;9.270;2022-09-09T04:37:20;3.60;;;2.03;;
801;SDS011;383;48.766;9.270;2022-09-09T04:39:46;2.90;;;2.10;;
801;SDS011;383;48.766;9.270;2022-09-09T04:42:13;7.70;;;2.33;;
801;SDS011;383;48.766;9.270;2022-09-09T04:44:42;5.00;;;2.10;;
801;SDS011;383;48.766;9.270;2022-09-09T04:47:09;7.20;;;2.30;;
801;SDS011;383;48.766;9.270;2022-09-09T04:49:37;7.90;;;2.43;;
801;SDS011;383;48.766;9.270;2022-09-09T04:52:04;8.10;;;2.30;;
801;SDS011;383;48.766;9.270;2022-09-09T04:54:31;4.90;;;2.10;;
801;SDS011;383;48.766;9.270;2022-09-09T04:56:57;8.83;;;2.20;;
801;SDS011;383;48.766;9.270;2022-09-09T04:59:24;9.00;;;2.50;;
801;SDS011;383;48.766;9.270;2022-09-09T05:01:52;8.53;;;2.23;;
801;SDS011;383;48.766;9.270;2022-09-09T05:04:20;3.53;;;1.83;;
801;SDS011;383;48.766;9.270;2022-09-09T05:06:46;4.37;;;2.33;;
801;SDS011;383;48.766;9.270;2022-09-09T05:09:13;5.00;;;2.00;;
801;SDS011;383;48.766;9.270;2022-09-09T05:11:40;4.00;;;2.03;;
801;SDS011;383;48.766;9.270;2022-09-09T05:14:06;4.30;;;1.73;;
801;SDS011;383;48.766;9.270;2022-09-09T05:16:33;4.80;;;2.13;;
801;SDS011;383;48.766;9.270;2022-09-09T05:19:01;5.23;;;2.23;;
801;SDS011;383;48.766;9.270;2022-09-09T05:21:28;5.53;;;2.23;;
801;SDS011;383;48.766;9.270;2022-09-09T05:23:56;7.60;;;3.30;;
801;SDS011;383;48.766;9.270;2022-09-09T05:26:23;15.57;;;7.83;;
801;SDS011;383;48.766;9.270;2022-09-09T05:28:49;15.53;;;3.90;;
801;SDS011;383;48.766;9.270;2022-09-09T05:31:16;3.43;;;2.27;;
801;SDS011;383;48.766;9.270;2022-09-09T05:33:44;5.93;;;2.70;;
801;SDS011;383;48.766;9.270;2022-09-09T05:36:14;5.90;;;2.97;;
801;SDS011;383;48.766;9.270;2022-09-09T05:38:42;2.87;;;2.00;;
801;SDS011;383;48.766;9.270;2022-09-09T05:41:10;3.10;;;2.20;;
801;SDS011;383;48.766;9.270;2022-09-09T05:43:40;4.13;;;2.37;;
801;SDS011;383;48.766;9.270;2022-09-09T05:46:09;2.73;;;2.00;;
801;SDS011;383;48.766;9.270;2022-09-09T05:48:38;3.27;;;1.70;;
801;SDS011;383;48.766;9.270;2022-09-09T05:51:06;5.30;;;1.93;;
801;SDS011;383;48.766;9.270;2022-09-09T05:53:35;13.53;;;3.30;;
801;SDS011;383;48.766;9.270;2022-09-09T05:56:03;3.70;;;2.57;;
801;SDS011;383;48.766;9.270;2022-09-09T05:58:30;6.20;;;2.37;;
801;SDS011;383;48.766;9.270;2022-09-09T06:01:01;4.10;;;2.17;;
801;SDS011;383;48.766;9.270;2022-09-09T06:03:29;9.03;;;2.23;;
801;SDS011;383;48.766;9.270;2022-09-09T06:05:57;4.30;;;1.83;;
801;SDS011;383;48.766;9.270;2022-09-09T06:08:24;5.53;;;2.30;;
801;SDS011;383;48.766;9.270;2022-09-09T06:10:53;5.20;;;2.00;;
801;SDS011;383;48.766;9.270;2022-09-09T06:13:21;8.47;;;2.33;;
801;SDS011;383;48.766;9.270;2022-09-09T06:15:49;9.83;;;1.80;;
801;SDS011;383;48.766;9.270;2022-09-09T06:18:16;4.60;;;2.00;;
801;SDS011;383;48.766;9.270;2022-09-09T06:20:43;4.63;;;2.20;;
801;SDS011;383;48.766;9.270;2022-09-09T06:23:18;99.87;;;37.40;;
801;SDS011;383;48.766;9.270;2022-09-09T06:25:45;166.50;;;56.30;;
801;SDS011;383;48.766;9.270;2022-09-09T06:28:15;131.90;;;53.53;;
801;SDS011;383;48.766;9.270;2022-09-09T06:30:42;164.70;;;70.43;;
801;SDS011;383;48.766;9.270;2022-09-09T06:33:09;18.07;;;8.03;;
801;SDS011;383;48.766;9.270;2022-09-09T06:35:36;9.50;;;3.90;;
801;SDS011;383;48.766;9.270;2022-09-09T06:38:03;162.67;;;69.43;;
801;SDS011;383;48.766;9.270;2022-09-09T06:40:30;125.83;;;47.10;;
801;SDS011;383;48.766;9.270;2022-09-09T06:42:59;408.10;;;160.63;;
801;SDS011;383;48.766;9.270;2022-09-09T06:45:28;270.67;;;112.60;;
801;SDS011;383;48.766;9.270;2022-09-09T06:47:55;57.80;;;28.47;;
801;SDS011;383;48.766;9.270;2022-09-09T06:50:22;29.57;;;16.80;;
801;SDS011;383;48.766;9.270;2022-09-09T06:52:48;16.57;;;7.87;;
801;SDS011;383;48.766;9.270;2022-09-09T06:55:16;6.07;;;4.40;;
801;SDS011;383;48.766;9.270;2022-09-09T06:57:43;5.97;;;3.20;;
801;SDS011;383;48.766;9.270;2022-09-09T07:00:10;3.90;;;2.73;;
801;SDS011;383;48.766;9.270;2022-09-09T07:02:40;8.17;;;6.60;;
801;SDS011;383;48.766;9.270;2022-09-09T07:05:07;13.03;;;4.00;;
801;SDS011;383;48.766;9.270;2022-09-09T07:07:34;5.37;;;3.13;;
801;SDS011;383;48.766;9.270;2022-09-09T07:10:01;5.53;;;2.00;;
801;SDS011;383;48.766;9.270;2022-09-09T07:12:29;3.83;;;1.90;;
801;SDS011;383;48.766;9.270;2022-09-09T07:14:56;3.57;;;1.80;;
801;SDS011;383;48.766;9.270;2022-09-09T07:17:23;4.37;;;2.07;;
801;SDS011;383;48.766;9.270;2022-09-09T07:19:52;4.73;;;2.00;;
801;SDS011;383;48.766;9.270;2022-09-09T07:22:18;5.40;;;2.37;;
801;SDS011;383;48.766;9.270;2022-09-09T07:24:45;2.93;;;1.70;;
801;SDS011;383;48.766;9.270;2022-09-09T07:27:13;3.83;;;2.20;;
801;SDS011;383;48.766;9.270;2022-09-09T07:29:39;6.40;;;1.63;;
801;SDS011;383;48.766;9.270;2022-09-09T07:32:06;3.07;;;1.97;;
801;SDS011;383;48.766;9.270;2022-09-09T07:34:33;3.10;;;1.90;;
801;SDS011;383;48.766;9.270;2022-09-09T07:37:01;4.83;;;1.77;;
801;SDS011;383;48.766;9.270;2022-09-09T07:39:28;2.10;;;1.57;;
801;SDS011;383;48.766;9.270;2022-09-09T07:41:55;9.53;;;1.70;;
801;SDS011;383;48.766;9.270;2022-09-09T07:44:23;4.30;;;2.13;;
801;SDS011;383;48.766;9.270;2022-09-09T07:46:51;6.43;;;2.20;;
801;SDS011;383;48.766;9.270;2022-09-09T07:49:18;3.90;;;2.67;;
801;SDS011;383;48.766;9.270;2022-09-09T07:51:46;2.23;;;2.07;;
801;SDS011;383;48.766;9.270;2022-09-09T07:54:16;9.43;;;2.00;;
801;SDS011;383;48.766;9.270;2022-09-09T07:56:45;13.40;;;2.37;;
801;SDS011;383;48.766;9.270;2022-09-09T07:59:13;4.70;;;1.97;;
801;SDS011;383;48.766;9.270;2022-09-09T08:01:40;9.63;;;2.77;;
801;SDS011;383;48.766;9.270;2022-09-09T08:04:09;5.07;;;1.90;;
801;SDS011;383;48.766;9.270;2022-09-09T08:06:41;6.03;;;1.70;;
801;SDS011;383;48.766;9.270;2022-09-09T08:09:09;3.93;;;1.47;;
801;SDS011;383;48.766;9.270;2022-09-09T08:11:38;4.97;;;2.00;;
801;SDS011;383;48.766;9.270;2022-09-09T08:14:06;2.87;;;1.57;;
801;SDS011;383;48.766;9.270;2022-09-09T08:16:34;10.30;;;2.27;;
801;SDS011;383;48.766;9.270;2022-09-09T08:19:02;6.17;;;2.70;;
801;SDS011;383;48.766;9.270;2022-09-09T08:21:31;4.00;;;2.20;;
801;SDS011;383;48.766;9.270;2022-09-09T08:23:59;4.30;;;2.00;;
801;SDS011;383;48.766;9.270;2022-09-09T08:26:28;3.60;;;1.63;;
801;SDS011;383;48.766;9.270;2022-09-09T08:28:58;2.67;;;1.73;;
801;SDS011;383;48.766;9.270;2022-09-09T08:31:27;12.57;;;2.10;;
801;SDS011;383;48.766;9.270;2022-09-09T08:33:55;2.83;;;1.53;;
801;SDS011;383;48.766;9.270;2022-09-09T08:36:23;3.77;;;1.60;;
801;SDS011;383;48.766;9.270;2022-09-09T08:38:52;4.23;;;1.83;;
801;SDS011;383;48.766;9.270;2022-09-09T08:41:29;3.17;;;1.60;;
801;SDS011;383;48.766;9.270;2022-09-09T08:44:05;3.33;;;1.50;;
801;SDS011;383;48.766;9.270;2022-09-09T08:46:35;8.33;;;1.80;;
801;SDS011;383;48.766;9.270;2022-09-09T08:49:14;3.97;;;1.60;;
801;SDS011;383;48.766;9.270;2022-09-09T08:51:52;6.50;;;2.50;;
801;SDS011;383;48.766;9.270;2022-09-09T08:54:22;2.57;;;1.70;;
801;SDS011;383;48.766;9.270;2022-09-09T08:56:49;2.37;;;2.03;;
801;SDS011;383;48.766;9.270;2022-09-09T08:59:18;7.50;;;1.93;;
801;SDS011;383;48.766;9.270;2022-09-09T09:01:54;13.00;;;2.03;;
801;SDS011;383;48.766;9.270;2022-09-09T09:04:38;5.50;;;1.80;;
801;SDS011;383;48.766;9.270;2022-09-09T09:07:26;6.07;;;1.80;;
801;SDS011;383;48.766;9.270;2022-09-09T09:10:02;6.03;;;1.43;;
801;SDS011;383;48.766;9.270;2022-09-09T09:12:38;7.20;;;2.20;;
801;SDS011;383;48.766;9.270;2022-09-09T09:15:11;4.90;;;1.40;;
801;SDS011;383;48.766;9.270;2022-09-09T09:17:43;4.00;;;1.90;;
801;SDS011;383;48.766;9.270;2022-09-09T09:20:12;7.70;;;1.70;;
801;SDS011;383;48.766;9.270;2022-09-09T09:22:42;4.37;;;1.30;;
801;SDS011;383;48.766;9.270;2022-09-09T09:25:14;2.20;;;1.50;;
801;SDS011;383;48.766;9.270;2022-09-09T09:27:45;3.53;;;1.57;;
801;SDS011;383;48.766;9.270;2022-09-09T09:30:25;2.73;;;1.97;;
801;SDS011;383;48.766;9.270;2022-09-09T09:32:55;5.10;;;1.53;;
801;SDS011;383;48.766;9.270;2022-09-09T09:35:26;8.80;;;1.70;;
801;SDS011;383;48.766;9.270;2022-09-09T09:37:52;4.77;;;1.20;;
801;SDS011;383;48.766;9.270;2022-09-09T09:40:20;4.23;;;1.30;;
801;SDS011;383;48.766;9.270;2022-09-09T09:42:48;2.60;;;1.40;;
801;SDS011;383;48.766;9.270;2022-09-09T09:45:20;3.90;;;1.20;;
801;SDS011;383;48.766;9.270;2022-09-09T09:48:00;4.60;;;1.47;;
801;SDS011;383;48.766;9.270;2022-09-09T09:50:28;4.87;;;1.23;;
801;SDS011;383;48.766;9.270;2022-09-09T09:52:56;3.00;;;1.20;;
801;SDS011;383;48.766;9.270;2022-09-09T09:55:25;4.13;;;1.70;;
801;SDS011;383;48.766;9.270;2022-09-09T09:57:59;2.43;;;1.23;;
801;SDS011;383;48.766;9.270;2022-09-09T10:00:29;2.70;;;1.67;;
801;SDS011;383;48.766;9.270;2022-09-09T10:02:56;5.20;;;1.83;;
801;SDS011;383;48.766;9.270;2022-09-09T10:05:23;2.00;;;1.40;;
801;SDS011;383;48.766;9.270;2022-09-09T10:08:00;5.13;;;1.63;;
801;SDS011;383;48.766;9.270;2022-09-09T10:10:36;3.60;;;1.37;;
801;SDS011;383;48.766;9.270;2022-09-09T10:13:15;3.03;;;1.50;;
801;SDS011;383;48.766;9.270;2022-09-09T10:15:48;7.70;;;2.30;;
801;SDS011;383;48.766;9.270;2022-09-09T10:18:34;2.63;;;1.70;;
801;SDS011;383;48.766;9.270;2022-09-09T10:21:11;5.00;;;1.50;;
801;SDS011;383;48.766;9.270;2022-09-09T10:23:49;5.37;;;1.40;;
801;SDS011;383;48.766;9.270;2022-09-09T10:26:30;5.43;;;1.83;;
801;SDS011;383;48.766;9.270;2022-09-09T10:29:17;3.77;;;1.80;;
801;SDS011;383;48.766;9.270;2022-09-09T10:32:01;7.00;;;1.57;;
801;SDS011;383;48.766;9.270;2022-09-09T10:34:54;6.80;;;1.70;;
801;SDS011;383;48.766;9.270;2022-09-09T10:37:27;4.63;;;1.87;;
801;SDS011;383;48.766;9.270;2022-09-09T10:40:13;4.73;;;1.50;;
801;SDS011;383;48.766;9.270;2022-09-09T10:42:49;9.23;;;1.80;;
801;SDS011;383;48.766;9.270;2022-09-09T10:45:17;3.33;;;1.73;;
801;SDS011;383;48.766;9.270;2022-09-09T10:47:52;8.40;;;2.57;;
801;SDS011;383;48.766;9.270;2022-09-09T10:50:38;4.63;;;1.63;;
801;SDS011;383;48.766;9.270;2022-09-09T10:53:12;2.70;;;1.70;;
801;SDS011;383;48.766;9.270;2022-09-09T10:55:48;4.10;;;1.40;;
801;SDS011;383;48.766;9.270;2022-09-09T10:58:19;4.53;;;1.47;;
801;SDS011;383;48.766;9.270;2022-09-09T11:00:52;7.57;;;1.60;;
801;SDS011;383;48.766;9.270;2022-09-09T11:03:24;12.53;;;2.20;;
801;SDS011;383;48.766;9.270;2022-09-09T11:05:55;2.97;;;1.40;;
801;SDS011;383;48.766;9.270;2022-09-09T11:08:25;5.67;;;1.43;;
801;SDS011;383;48.766;9.270;2022-09-09T11:10:53;8.23;;;1.90;;
801;SDS011;383;48.766;9.270;2022-09-09T11:13:26;7.00;;;1.83;;
801;SDS011;383;48.766;9.270;2022-09-09T11:16:01;4.10;;;1.20;;
801;SDS011;383;48.766;9.270;2022-09-09T11:18:39;4.03;;;1.60;;
801;SDS011;383;48.766;9.270;2022-09-09T11:21:11;2.43;;;1.40;;
801;SDS011;383;48.766;9.270;2022-09-09T11:23:44;3.37;;;1.47;;
801;SDS011;383;48.766;9.270;2022-09-09T11:26:17;6.70;;;2.07;;
801;SDS011;383;48.766;9.270;2022-09-09T11:28:54;2.97;;;1.30;;
801;SDS011;383;48.766;9.270;2022-09-09T11:31:36;6.93;;;2.03;;
801;SDS011;383;48.766;9.270;2022-09-09T11:34:19;6.03;;;1.40;;
801;SDS011;383;48.766;9.270;2022-09-09T11:37:04;3.23;;;1.17;;
801;SDS011;383;48.766;9.270;2022-09-09T11:39:45;6.87;;;1.70;;
801;SDS011;383;48.766;9.270;2022-09-09T11:42:20;5.90;;;1.53;;
801;SDS011;383;48.766;9.270;2022-09-09T11:44:49;10.30;;;1.17;;
801;SDS011;383;48.766;9.270;2022-09-09T11:47:19;4.47;;;1.60;;
801;SDS011;383;48.766;9.270;2022-09-09T11:49:50;5.00;;;1.33;;
801;SDS011;383;48.766;9.270;2022-09-09T11:52:20;2.83;;;1.37;;
801;SDS011;383;48.766;9.270;2022-09-09T11:54:50;3.90;;;1.53;;
801;SDS011;383;48.766;9.270;2022-09-09T11:57:22;4.67;;;1.47;;
801;SDS011;383;48.766;9.270;2022-09-09T11:59:53;1.53;;;0.87;;
801;SDS011;383;48.766;9.270;2022-09-09T12:02:22;1.10;;;1.00;;
801;SDS011;383;48.766;9.270;2022-09-09T12:04:56;3.40;;;0.80;;
801;SDS011;383;48.766;9.270;2022-09-09T12:07:29;2.10;;;1.17;;
801;SDS011;383;48.766;9.270;2022-09-09T12:10:00;0.80;;;0.70;;
801;SDS011;383;48.766;9.270;2022-09-09T12:12:32;4.40;;;0.70;;
801;SDS011;383;48.766;9.270;2022-09-09T12:15:02;2.03;;;1.27;;
801;SDS011;383;48.766;9.270;2022-09-09T12:17:46;5.47;;;2.87;;
801;SDS011;383;48.766;9.270;2022-09-09T12:20:18;3.33;;;2.03;;
801;SDS011;383;48.766;9.270;2022-09-09T12:22:50;1.33;;;1.10;;
801;SDS011;383;48.766;9.270;2022-09-09T12:25:33;0.70;;;0.63;;
801;SDS011;383;48.766;9.270;2022-09-09T12:28:09;1.23;;;0.73;;
801;SDS011;383;48.766;9.270;2022-09-09T12:30:42;3.53;;;1.40;;
801;SDS011;383;48.766;9.270;2022-09-09T12:33:16;11.27;;;4.47;;
801;SDS011;383;48.766;9.270;2022-09-09T12:35:47;3.23;;;1.50;;
801;SDS011;383;48.766;9.270;2022-09-09T12:38:22;1.40;;;0.93;;
801;SDS011;383;48.766;9.270;2022-09-09T12:40:57;3.07;;;1.00;;
801;SDS011;383;48.766;9.270;2022-09-09T12:43:26;6.37;;;2.50;;
801;SDS011;383;48.766;9.270;2022-09-09T12:45:54;7.67;;;2.67;;
801;SDS011;383;48.766;9.270;2022-09-09T12:48:25;1.93;;;1.03;;
801;SDS011;383;48.766;9.270;2022-09-09T12:50:57;1.07;;;1.00;;
801;SDS011;383;48.766;9.270;2022-09-09T12:53:26;2.37;;;1.23;;
801;SDS011;383;48.766;9.270;2022-09-09T12:55:56;16.03;;;4.40;;
801;SDS011;383;48.766;9.270;2022-09-09T12:58:24;5.30;;;1.50;;
801;SDS011;383;48.766;9.270;2022-09-09T13:00:53;3.67;;;1.40;;
801;SDS011;383;48.766;9.270;2022-09-09T13:03:21;4.93;;;2.33;;
801;SDS011;383;48.766;9.270;2022-09-09T13:05:50;3.87;;;1.63;;
801;SDS011;383;48.766;9.270;2022-09-09T13:08:19;1.87;;;1.20;;
801;SDS011;383;48.766;9.270;2022-09-09T13:10:46;2.23;;;1.43;;
801;SDS011;383;48.766;9.270;2022-09-09T13:13:19;9.27;;;1.27;;
801;SDS011;383;48.766;9.270;2022-09-09T13:15:49;3.03;;;0.90;;
801;SDS011;383;48.766;9.270;2022-09-09T13:18:17;1.23;;;1.00;;
801;SDS011;383;48.766;9.270;2022-09-09T13:20:48;2.87;;;1.13;;
801;SDS011;383;48.766;9.270;2022-09-09T13:23:15;2.20;;;1.43;;
801;SDS011;383;48.766;9.270;2022-09-09T13:25:53;5.30;;;1.60;;
801;SDS011;383;48.766;9.270;2022-09-09T13:28:22;1.40;;;1.10;;
801;SDS011;383;48.766;9.270;2022-09-09T13:30:56;4.80;;;1.57;;
801;SDS011;383;48.766;9.270;2022-09-09T13:33:29;5.60;;;2.23;;
801;SDS011;383;48.766;9.270;2022-09-09T13:35:58;3.03;;;1.07;;
801;SDS011;383;48.766;9.270;2022-09-09T13:38:28;2.07;;;0.80;;
801;SDS011;383;48.766;9.270;2022-09-09T13:40:59;4.33;;;1.50;;
801;SDS011;383;48.766;9.270;2022-09-09T13:43:28;4.97;;;1.47;;
801;SDS011;383;48.766;9.270;2022-09-09T13:45:58;5.40;;;1.20;;
801;SDS011;383;48.766;9.270;2022-09-09T13:48:26;1.37;;;0.90;;
801;SDS011;383;48.766;9.270;2022-09-09T13:50:53;3.47;;;1.17;;
801;SDS011;383;48.766;9.270;2022-09-09T13:53:21;3.43;;;1.00;;
801;SDS011;383;48.766;9.270;2022-09-09T13:55:48;5.07;;;1.50;;
801;SDS011;383;48.766;9.270;2022-09-09T13:58:17;1.43;;;0.97;;
801;SDS011;383;48.766;9.270;2022-09-09T14:00:44;4.50;;;1.60;;
801;SDS011;383;48.766;9.270;2022-09-09T14:03:12;4.10;;;1.57;;
801;SDS011;383;48.766;9.270;2022-09-09T14:05:38;3.17;;;1.27;;
801;SDS011;383;48.766;9.270;2022-09-09T14:08:06;3.23;;;0.90;;
801;SDS011;383;48.766;9.270;2022-09-09T14:10:33;2.70;;;1.07;;
801;SDS011;383;48.766;9.270;2022-09-09T14:13:02;2.40;;;1.10;;
801;SDS011;383;48.766;9.270;2022-09-09T14:15:30;1.13;;;0.90;;
801;SDS011;383;48.766;9.270;2022-09-09T14:17:57;4.00;;;1.00;;
801;SDS011;383;48.766;9.270;2022-09-09T14:20:24;6.70;;;1.10;;
801;SDS011;383;48.766;9.270;2022-09-09T14:22:51;2.10;;;1.00;;
801;SDS011;383;48.766;9.270;2022-09-09T14:25:18;2.00;;;0.83;;
801;SDS011;383;48.766;9.270;2022-09-09T14:27:45;3.10;;;1.20;;
801;SDS011;383;48.766;9.270;2022-09-09T14:30:12;3.43;;;1.27;;
801;SDS011;383;48.766;9.270;2022-09-09T14:32:40;2.10;;;1.17;;
801;SDS011;383;48.766;9.270;2022-09-09T14:35:07;2.73;;;1.13;;
801;SDS011;383;48.766;9.270;2022-09-09T14:37:34;7.10;;;1.07;;
801;SDS011;383;48.766;9.270;2022-09-09T14:40:01;4.80;;;1.10;;
801;SDS011;383;48.766;9.270;2022-09-09T14:42:28;1.60;;;0.83;;
801;SDS011;383;48.766;9.270;2022-09-09T14:44:55;2.90;;;1.60;;
801;SDS011;383;48.766;9.270;2022-09-09T14:47:21;5.23;;;1.00;;
801;SDS011;383;48.766;9.270;2022-09-09T14:49:50;5.10;;;1.57;;
801;SDS011;383;48.766;9.270;2022-09-09T14:52:17;1.87;;;1.10;;
801;SDS011;383;48.766;9.270;2022-09-09T14:54:43;3.17;;;1.60;;
801;SDS011;383;48.766;9.270;2022-09-09T14:57:10;1.70;;;0.90;;
801;SDS011;383;48.766;9.270;2022-09-09T14:59:37;1.83;;;0.90;;
801;SDS011;383;48.766;9.270;2022-09-09T15:02:03;3.13;;;1.17;;
801;SDS011;383;48.766;9.270;2022-09-09T15:04:30;2.30;;;0.97;;
801;SDS011;383;48.766;9.270;2022-09-09T15:06:58;4.47;;;1.23;;
801;SDS011;383;48.766;9.270;2022-09-09T15:09:25;2.10;;;0.90;;
801;SDS011;383;48.766;9.270;2022-09-09T15:11:51;2.27;;;0.93;;
801;SDS011;383;48.766;9.270;2022-09-09T15:14:18;4.50;;;1.30;;
801;SDS011;383;48.766;9.270;2022-09-09T15:16:45;2.97;;;1.10;;
801;SDS011;383;48.766;9.270;2022-09-09T15:19:12;3.07;;;1.13;;
801;SDS011;383;48.766;9.270;2022-09-09T15:21:39;5.93;;;1.37;;
801;SDS011;383;48.766;9.270;2022-09-09T15:24:07;4.77;;;0.87;;
801;SDS011;383;48.766;9.270;2022-09-09T15:26:34;3.80;;;1.07;;
801;SDS011;383;48.766;9.270;2022-09-09T15:29:03;2.77;;;1.10;;
801;SDS011;383;48.766;9.270;2022-09-09T15:31:30;2.80;;;1.00;;
801;SDS011;383;48.766;9.270;2022-09-09T15:33:58;2.90;;;1.23;;
801;SDS011;383;48.766;9.270;2022-09-09T15:36:27;1.73;;;0.90;;
801;SDS011;383;48.766;9.270;2022-09-09T15:38:55;2.80;;;0.90;;
801;SDS011;383;48.766;9.270;2022-09-09T15:41:23;6.87;;;1.77;;
801;SDS011;383;48.766;9.270;2022-09-09T15:43:51;2.27;;;1.10;;
801;SDS011;383;48.766;9.270;2022-09-09T15:46:22;4.73;;;1.70;;
801;SDS011;383;48.766;9.270;2022-09-09T15:48:52;4.00;;;1.97;;
801;SDS011;383;48.766;9.270;2022-09-09T15:51:19;5.87;;;1.00;;
801;SDS011;383;48.766;9.270;2022-09-09T15:53:47;1.63;;;0.93;;
801;SDS011;383;48.766;9.270;2022-09-09T15:56:13;2.00;;;1.20;;
801;SDS011;383;48.766;9.270;2022-09-09T15:58:41;13.00;;;1.50;;
801;SDS011;383;48.766;9.270;2022-09-09T16:01:09;2.03;;;1.00;;
801;SDS011;383;48.766;9.270;2022-09-09T16:03:37;3.40;;;1.10;;
801;SDS011;383;48.766;9.270;2022-09-09T16:06:06;6.80;;;1.33;;